createdAt,value
2018-06-04T00:02:29.923Z,1011.37
2018-06-04T00:03:29.892Z,1011.41
2018-06-04T00:04:29.849Z,1011.37
2018-06-04T00:05:29.775Z,1011.40
2018-06-04T00:06:29.659Z,1011.38
2018-06-04T00:07:29.577Z,1011.36
2018-06-04T00:08:29.472Z,1011.38
2018-06-04T00:09:29.481Z,1011.40
2018-06-04T00:10:29.299Z,1011.41
2018-06-04T00:11:29.293Z,1011.39
2018-06-04T00:12:29.136Z,1011.38
2018-06-04T00:13:29.141Z,1011.40
2018-06-04T00:14:28.980Z,1011.37
2018-06-04T00:15:29.006Z,1011.35
2018-06-04T00:16:28.855Z,1011.34
2018-06-04T00:17:28.821Z,1011.32
2018-06-04T00:18:28.691Z,1011.31
2018-06-04T00:21:10.953Z,1011.29
2018-06-04T00:23:52.968Z,1011.24
2018-06-04T00:25:13.857Z,1011.23
2018-06-04T00:25:52.763Z,1011.24
2018-06-04T00:26:52.739Z,1011.24
2018-06-04T00:27:52.615Z,1011.29
2018-06-04T00:28:53.608Z,1011.29
2018-06-04T00:29:52.460Z,1011.30
2018-06-04T00:30:52.498Z,1011.36
2018-06-04T00:31:52.299Z,1011.36
2018-06-04T00:32:52.268Z,1011.37
2018-06-04T00:52:14.856Z,1011.31
2018-06-04T00:53:14.689Z,1011.25
2018-06-04T00:55:56.959Z,1011.21
2018-06-04T00:57:17.838Z,1011.19
2018-06-04T00:57:56.772Z,1011.21
2018-06-04T01:00:38.947Z,1011.20
2018-06-04T01:03:20.929Z,1011.14
2018-06-04T01:04:20.938Z,1011.12
2018-06-04T01:05:20.779Z,1011.09
2018-06-04T01:06:21.815Z,1011.13
2018-06-04T01:07:20.651Z,1011.12
2018-06-04T01:29:00.470Z,1011.08
2018-06-04T01:30:00.431Z,1011.03
2018-06-04T01:31:00.310Z,1011.04
2018-06-04T01:32:00.334Z,1011.01
2018-06-04T01:33:00.167Z,1010.97
2018-06-04T01:34:00.139Z,1010.97
2018-06-04T01:35:00.005Z,1010.96
2018-06-04T01:35:59.968Z,1011.03
2018-06-04T01:36:59.890Z,1011.04
2018-06-04T01:37:59.905Z,1011.01
2018-06-04T01:38:59.720Z,1011.02
2018-06-04T01:39:59.673Z,1011.04
2018-06-04T01:40:59.515Z,1011.03
2018-06-04T01:41:59.484Z,1010.99
2018-06-04T01:42:59.391Z,1010.98
2018-06-04T01:43:59.391Z,1010.96
2018-06-04T01:44:59.204Z,1010.94
2018-06-04T01:45:59.195Z,1010.95
2018-06-04T01:46:59.053Z,1010.92
2018-06-04T01:47:59.050Z,1010.90
2018-06-04T01:48:58.897Z,1010.88
2018-06-04T01:49:58.924Z,1010.85
2018-06-04T01:50:58.741Z,1010.87
2018-06-04T01:51:58.733Z,1010.84
2018-06-04T01:52:58.618Z,1010.83
2018-06-04T01:53:59.609Z,1010.82
2018-06-04T01:54:58.465Z,1010.83
2018-06-04T01:55:58.491Z,1010.78
2018-06-04T01:56:58.311Z,1010.77
2018-06-04T01:59:40.524Z,1010.78
2018-06-04T02:00:40.466Z,1010.76
2018-06-04T02:01:40.285Z,1010.78
2018-06-04T02:02:40.273Z,1010.77
2018-06-04T02:03:40.136Z,1010.76
2018-06-04T02:04:40.184Z,1010.78
2018-06-04T02:05:40.015Z,1010.76
2018-06-04T02:06:39.988Z,1010.82
2018-06-04T02:07:39.816Z,1010.79
2018-06-04T02:08:39.794Z,1010.78
2018-06-04T02:09:39.672Z,1010.78
2018-06-04T02:28:01.992Z,1010.72
2018-06-04T02:29:01.953Z,1010.69
2018-06-04T02:30:01.844Z,1010.66
2018-06-04T02:31:01.811Z,1010.69
2018-06-04T02:32:01.666Z,1010.65
2018-06-04T02:33:01.664Z,1010.64
2018-06-04T02:34:01.494Z,1010.63
2018-06-04T02:35:01.507Z,1010.60
2018-06-04T02:36:01.359Z,1010.64
2018-06-04T02:37:01.322Z,1010.63
2018-06-04T02:38:01.180Z,1010.63
2018-06-04T02:39:01.192Z,1010.64
2018-06-04T02:40:01.031Z,1010.60
2018-06-04T02:41:00.999Z,1010.61
2018-06-04T02:42:00.907Z,1010.63
2018-06-04T02:43:00.902Z,1010.61
2018-06-04T02:44:00.705Z,1010.55
2018-06-04T02:45:00.737Z,1010.56
2018-06-04T02:46:00.571Z,1010.55
2018-06-04T02:47:00.529Z,1010.53
2018-06-04T02:48:00.404Z,1010.58
2018-06-04T02:49:00.437Z,1010.53
2018-06-04T02:50:00.347Z,1010.51
2018-06-04T02:51:00.276Z,1010.51
2018-06-04T02:52:00.122Z,1010.54
2018-06-04T02:53:00.052Z,1010.50
2018-06-04T02:53:59.923Z,1010.49
2018-06-04T02:54:59.963Z,1010.54
2018-06-04T02:55:59.775Z,1010.51
2018-06-04T02:56:59.805Z,1010.56
2018-06-04T02:57:59.620Z,1010.52
2018-06-04T02:58:59.580Z,1010.53
2018-06-04T02:59:59.464Z,1010.57
2018-06-04T03:00:59.494Z,1010.59
2018-06-04T03:01:59.333Z,1010.61
2018-06-04T03:02:59.298Z,1010.62
2018-06-04T03:03:59.144Z,1010.66
2018-06-04T03:04:59.111Z,1010.64
2018-06-04T03:05:58.983Z,1010.67
2018-06-04T03:06:59.019Z,1010.60
2018-06-04T03:07:58.852Z,1010.59
2018-06-04T03:08:58.831Z,1010.61
2018-06-04T03:09:58.674Z,1010.60
2018-06-04T03:10:58.637Z,1010.54
2018-06-04T03:11:58.600Z,1010.55
2018-06-04T03:12:58.583Z,1010.55
2018-06-04T03:13:58.355Z,1010.54
2018-06-04T03:14:58.354Z,1010.51
2018-06-04T03:15:58.199Z,1010.52
2018-06-04T03:16:58.162Z,1010.51
2018-06-04T03:17:58.066Z,1010.53
2018-06-04T03:18:58.084Z,1010.50
2018-06-04T03:19:57.952Z,1010.51
2018-06-04T03:20:57.886Z,1010.50
2018-06-04T03:21:57.754Z,1010.50
2018-06-04T03:22:57.727Z,1010.48
2018-06-04T03:23:57.602Z,1010.50
2018-06-04T03:24:57.627Z,1010.49
2018-06-04T03:25:57.419Z,1010.48
2018-06-04T03:26:57.409Z,1010.45
2018-06-04T03:27:57.281Z,1010.44
2018-06-04T03:28:57.220Z,1010.41
2018-06-04T03:29:57.110Z,1010.46
2018-06-04T03:30:57.198Z,1010.47
2018-06-04T03:31:56.978Z,1010.43
2018-06-04T03:32:56.971Z,1010.44
2018-06-04T03:33:56.798Z,1010.40
2018-06-04T03:34:56.803Z,1010.46
2018-06-04T03:35:56.636Z,1010.45
2018-06-04T03:38:38.500Z,1010.46
2018-06-04T03:39:38.451Z,1010.46
2018-06-04T03:40:38.327Z,1010.49
2018-06-04T03:41:38.358Z,1010.44
2018-06-04T03:42:38.181Z,1010.40
2018-06-04T03:43:38.215Z,1010.44
2018-06-04T03:44:37.998Z,1010.42
2018-06-04T03:45:37.988Z,1010.42
2018-06-04T03:46:37.851Z,1010.44
2018-06-04T03:47:37.904Z,1010.46
2018-06-04T03:48:37.710Z,1010.43
2018-06-04T03:49:37.714Z,1010.46
2018-06-04T03:50:37.537Z,1010.45
2018-06-04T03:51:37.502Z,1010.42
2018-06-04T03:52:37.389Z,1010.42
2018-06-04T04:07:00.780Z,1010.33
2018-06-04T04:08:00.622Z,1010.35
2018-06-04T04:09:00.550Z,1010.32
2018-06-04T04:10:00.555Z,1010.40
2018-06-04T04:11:00.437Z,1010.37
2018-06-04T04:12:00.288Z,1010.37
2018-06-04T04:13:00.377Z,1010.42
2018-06-04T04:14:00.101Z,1010.44
2018-06-04T04:15:00.091Z,1010.39
2018-06-04T04:15:59.980Z,1010.41
2018-06-04T04:16:59.996Z,1010.44
2018-06-04T04:17:59.793Z,1010.43
2018-06-04T04:20:42.027Z,1010.43
2018-06-04T04:21:42.006Z,1010.44
2018-06-04T04:22:41.823Z,1010.45
2018-06-04T04:23:41.843Z,1010.43
2018-06-04T04:24:41.696Z,1010.44
2018-06-04T04:25:41.653Z,1010.45
2018-06-04T04:26:41.522Z,1010.45
2018-06-04T04:27:41.573Z,1010.46
2018-06-04T04:28:41.355Z,1010.44
2018-06-04T04:31:23.517Z,1010.49
2018-06-04T04:32:23.435Z,1010.46
2018-06-04T04:33:23.335Z,1010.45
2018-06-04T04:34:23.354Z,1010.49
2018-06-04T04:35:23.188Z,1010.52
2018-06-04T04:36:24.228Z,1010.50
2018-06-04T04:37:23.026Z,1010.46
2018-06-04T04:38:23.073Z,1010.47
2018-06-04T04:39:22.877Z,1010.46
2018-06-04T04:40:23.092Z,1010.45
2018-06-04T04:41:22.759Z,1010.46
2018-06-04T04:42:23.315Z,1010.44
2018-06-04T04:43:22.573Z,1010.44
2018-06-04T04:46:04.495Z,1010.37
2018-06-04T04:47:04.540Z,1010.42
2018-06-04T04:48:04.333Z,1010.41
2018-06-04T04:49:04.303Z,1010.32
2018-06-04T04:50:04.182Z,1010.40
2018-06-04T04:51:04.217Z,1010.39
2018-06-04T04:52:04.057Z,1010.40
2018-06-04T04:53:04.023Z,1010.37
2018-06-04T04:54:03.880Z,1010.40
2018-06-04T04:55:03.860Z,1010.38
2018-06-04T04:56:03.721Z,1010.39
2018-06-04T04:57:03.795Z,1010.40
2018-06-04T04:58:03.556Z,1010.45
2018-06-04T04:59:03.552Z,1010.44
2018-06-04T05:00:03.397Z,1010.44
2018-06-04T05:01:03.403Z,1010.41
2018-06-04T05:02:03.304Z,1010.42
2018-06-04T05:04:45.505Z,1010.45
2018-06-04T05:05:45.478Z,1010.46
2018-06-04T05:06:45.347Z,1010.46
2018-06-04T05:07:45.325Z,1010.42
2018-06-04T05:08:45.197Z,1010.46
2018-06-04T05:11:27.505Z,1010.47
2018-06-04T05:12:27.547Z,1010.48
2018-06-04T05:13:27.373Z,1010.46
2018-06-04T05:14:27.326Z,1010.47
2018-06-04T05:15:27.195Z,1010.45
2018-06-04T05:16:27.217Z,1010.47
2018-06-04T05:17:27.042Z,1010.44
2018-06-04T05:18:27.033Z,1010.46
2018-06-04T05:19:26.947Z,1010.43
2018-06-04T05:20:26.937Z,1010.45
2018-06-04T05:21:26.737Z,1010.42
2018-06-04T05:24:09.050Z,1010.42
2018-06-04T05:26:51.018Z,1010.49
2018-06-04T05:27:51.046Z,1010.47
2018-06-04T05:28:50.853Z,1010.50
2018-06-04T05:29:51.908Z,1010.44
2018-06-04T05:30:50.698Z,1010.45
2018-06-04T05:31:50.741Z,1010.45
2018-06-04T05:32:50.545Z,1010.48
2018-06-04T05:33:51.554Z,1010.43
2018-06-04T05:34:50.416Z,1010.43
2018-06-04T05:52:30.539Z,1010.47
2018-06-04T05:53:31.499Z,1010.46
2018-06-04T05:54:30.365Z,1010.46
2018-06-04T05:57:12.536Z,1010.52
2018-06-04T05:58:12.555Z,1010.50
2018-06-04T05:59:12.360Z,1010.51
2018-06-04T06:00:12.368Z,1010.53
2018-06-04T06:01:12.228Z,1010.47
2018-06-04T06:03:54.520Z,1010.42
2018-06-04T06:04:56.540Z,1010.43
2018-06-04T06:05:54.377Z,1010.39
2018-06-04T06:06:54.426Z,1010.37
2018-06-04T06:07:54.224Z,1010.35
2018-06-04T06:08:54.216Z,1010.32
2018-06-04T06:09:54.093Z,1010.32
2018-06-04T06:10:54.092Z,1010.31
2018-06-04T06:11:53.923Z,1010.34
2018-06-04T06:12:53.904Z,1010.29
2018-06-04T06:13:53.769Z,1010.32
2018-06-04T06:16:36.054Z,1010.26
2018-06-04T06:19:18.070Z,1010.28
2018-06-04T06:20:18.030Z,1010.29
2018-06-04T06:21:17.886Z,1010.32
2018-06-04T06:22:18.894Z,1010.33
2018-06-04T06:23:17.710Z,1010.30
2018-06-04T06:26:00.074Z,1010.69
2018-06-04T06:28:42.070Z,1011.04
2018-06-04T06:31:24.069Z,1011.00
2018-06-04T06:32:24.039Z,1011.01
2018-06-04T06:33:23.899Z,1011.03
2018-06-04T06:34:23.879Z,1010.97
2018-06-04T06:35:23.749Z,1010.96
2018-06-04T06:36:23.670Z,1010.86
2018-06-04T06:37:23.599Z,1010.93
2018-06-04T06:38:23.572Z,1010.94
2018-06-04T06:39:23.462Z,1010.83
2018-06-04T06:40:23.475Z,1010.80
2018-06-04T06:41:23.298Z,1010.88
2018-06-04T06:42:23.276Z,1010.85
2018-06-04T06:43:23.187Z,1010.84
2018-06-04T06:44:23.198Z,1010.88
2018-06-04T06:45:23.002Z,1010.84
2018-06-04T06:47:47.550Z,1010.91
2018-06-04T06:48:48.555Z,1010.90
2018-06-04T06:49:47.390Z,1010.88
2018-06-04T06:50:48.464Z,1010.84
2018-06-04T06:51:47.251Z,1010.85
2018-06-04T06:54:29.550Z,1010.81
2018-06-04T06:55:29.579Z,1010.72
2018-06-04T06:57:29.422Z,1010.68
2018-06-04T06:58:29.267Z,1010.65
2018-06-04T06:59:29.254Z,1010.71
2018-06-04T07:00:29.162Z,1010.77
2018-06-04T07:01:29.146Z,1010.78
2018-06-04T07:02:28.985Z,1010.82
2018-06-04T07:03:28.965Z,1010.84
2018-06-04T07:04:28.850Z,1010.83
2018-06-04T07:05:28.890Z,1010.80
2018-06-04T07:06:28.701Z,1010.82
2018-06-04T07:07:28.711Z,1010.84
2018-06-04T07:08:28.559Z,1010.83
2018-06-04T07:09:28.511Z,1010.80
2018-06-04T07:10:28.421Z,1010.79
2018-06-04T07:13:10.556Z,1010.69
2018-06-04T07:14:11.608Z,1010.69
2018-06-04T07:15:10.473Z,1010.64
2018-06-04T07:16:10.540Z,1010.61
2018-06-04T07:17:10.273Z,1010.64
2018-06-04T07:19:52.591Z,1010.57
2018-06-04T07:20:52.561Z,1010.40
2018-06-04T07:21:52.407Z,1010.47
2018-06-04T07:22:52.432Z,1010.49
2018-06-04T07:23:52.282Z,1010.39
2018-06-04T07:24:52.259Z,1010.56
2018-06-04T07:25:52.139Z,1010.40
2018-06-04T07:26:52.148Z,1010.54
2018-06-04T07:27:52.017Z,1010.48
2018-06-04T07:28:52.061Z,1010.52
2018-06-04T07:29:51.919Z,1010.44
2018-06-04T07:32:34.124Z,1010.39
2018-06-04T07:35:20.572Z,1010.51
2018-06-04T07:36:20.594Z,1010.50
2018-06-04T07:37:20.412Z,1010.56
2018-06-04T07:40:02.569Z,1010.55
2018-06-04T07:41:02.609Z,1010.46
2018-06-04T07:42:02.440Z,1010.41
2018-06-04T07:45:46.701Z,1010.44
2018-06-04T07:46:45.485Z,1010.45
2018-06-04T07:47:45.517Z,1010.49
2018-06-04T07:48:45.434Z,1010.52
2018-06-04T07:49:45.339Z,1010.56
2018-06-04T07:50:45.222Z,1010.60
2018-06-04T07:51:45.242Z,1010.52
2018-06-04T07:52:45.084Z,1010.67
2018-06-04T07:55:27.102Z,1010.72
2018-06-04T07:57:51.566Z,1010.76
2018-06-04T08:00:33.607Z,1010.59
2018-06-04T08:01:33.563Z,1010.55
2018-06-04T08:02:33.426Z,1010.78
2018-06-04T08:04:58.098Z,1010.85
2018-06-04T08:23:48.828Z,1009.94
2018-06-04T08:24:48.834Z,1010.27
2018-06-04T08:25:48.687Z,1010.28
2018-06-04T08:28:30.618Z,1010.30
2018-06-04T08:29:30.601Z,1010.29
2018-06-04T08:30:30.475Z,1010.24
2018-06-04T08:31:30.485Z,1010.24
2018-06-04T08:32:30.301Z,1010.17
2018-06-04T08:33:30.383Z,1010.02
2018-06-04T08:34:30.162Z,1010.22
2018-06-04T08:37:12.164Z,1010.35
2018-06-04T08:39:54.075Z,1010.17
2018-06-04T08:40:54.065Z,1010.27
2018-06-04T08:41:53.978Z,1010.28
2018-06-04T08:42:53.982Z,1010.23
2018-06-04T08:43:53.814Z,1010.23
2018-06-04T08:44:53.779Z,1010.21
2018-06-04T08:45:53.700Z,1010.21
2018-06-04T08:46:53.733Z,1010.24
2018-06-04T08:47:53.571Z,1009.81
2018-06-04T08:48:53.601Z,1009.86
2018-06-04T08:49:53.442Z,1010.28
2018-06-04T08:52:35.791Z,1010.26
2018-06-04T08:53:35.619Z,1010.25
2018-06-04T08:54:35.461Z,1010.27
2018-06-04T08:55:35.423Z,1010.23
2018-06-04T08:56:35.333Z,1009.82
2018-06-04T08:57:35.362Z,1009.81
2018-06-04T08:58:35.191Z,1010.28
2018-06-04T08:59:35.264Z,1010.32
2018-06-04T09:00:35.089Z,1010.32
2018-06-04T09:01:35.049Z,1010.28
2018-06-04T09:02:34.948Z,1009.81
2018-06-04T09:03:34.972Z,1009.78
2018-06-04T09:04:34.794Z,1010.15
2018-06-04T09:07:17.097Z,1010.21
2018-06-04T09:08:17.135Z,1010.25
2018-06-04T09:09:16.971Z,1010.26
2018-06-04T09:10:16.990Z,1010.22
2018-06-04T09:11:16.842Z,1010.28
2018-06-04T09:12:16.791Z,1010.16
2018-06-04T09:13:16.734Z,1010.27
2018-06-04T09:15:58.594Z,1010.37
2018-06-04T09:16:58.605Z,1010.41
2018-06-04T09:17:58.506Z,1010.38
2018-06-04T09:18:59.486Z,1010.36
2018-06-04T09:19:58.354Z,1010.36
2018-06-04T09:20:58.327Z,1010.35
2018-06-04T09:21:58.254Z,1010.35
2018-06-04T09:22:58.157Z,1010.41
2018-06-04T09:23:58.281Z,1010.41
2018-06-04T09:24:58.020Z,1010.43
2018-06-04T09:25:57.967Z,1010.40
2018-06-04T09:26:57.958Z,1010.22
2018-06-04T09:27:57.818Z,1010.42
2018-06-04T09:28:57.912Z,1010.34
2018-06-04T09:29:57.712Z,1010.42
2018-06-04T09:30:57.789Z,1010.37
2018-06-04T09:31:57.586Z,1010.01
2018-06-04T09:32:57.576Z,1010.47
2018-06-04T09:33:57.474Z,1010.41
2018-06-04T09:34:57.507Z,1010.35
2018-06-04T09:35:57.317Z,1010.28
2018-06-04T09:36:57.300Z,1010.01
2018-06-04T09:37:57.198Z,1009.74
2018-06-04T09:38:57.257Z,1010.29
2018-06-04T09:39:57.085Z,1010.60
2018-06-04T09:42:39.109Z,1010.54
2018-06-04T09:43:39.212Z,1010.53
2018-06-04T09:44:38.977Z,1010.55
2018-06-04T09:45:39.060Z,1010.58
2018-06-04T09:46:38.845Z,1010.62
2018-06-04T09:47:38.850Z,1010.48
2018-06-04T09:48:38.823Z,1010.59
2018-06-04T09:51:20.610Z,1010.46
2018-06-04T09:52:20.672Z,1010.50
2018-06-04T09:53:20.474Z,1010.46
2018-06-04T09:54:20.483Z,1010.43
2018-06-04T09:55:20.356Z,1010.44
2018-06-04T09:56:20.426Z,1010.48
2018-06-04T09:57:20.232Z,1010.46
2018-06-04T09:58:20.177Z,1009.86
2018-06-04T09:59:20.180Z,1010.48
2018-06-04T10:02:02.138Z,1010.45
2018-06-04T10:03:02.212Z,1010.47
2018-06-04T10:04:01.987Z,1010.47
2018-06-04T10:05:03.090Z,1010.40
2018-06-04T10:06:01.863Z,1010.15
2018-06-04T10:07:01.920Z,1009.63
2018-06-04T10:08:01.738Z,1009.71
2018-06-04T10:10:43.807Z,1010.44
2018-06-04T10:11:43.676Z,1010.43
2018-06-04T10:12:43.494Z,1010.40
2018-06-04T10:13:43.441Z,1010.37
2018-06-04T10:14:43.398Z,1010.43
2018-06-04T10:15:43.329Z,1010.44
2018-06-04T10:16:43.238Z,1010.47
2018-06-04T10:17:43.274Z,1010.41
2018-06-04T10:18:43.112Z,1010.41
2018-06-04T10:19:43.176Z,1010.33
2018-06-04T10:20:42.980Z,1009.80
2018-06-04T10:21:42.919Z,1009.88
2018-06-04T10:22:42.883Z,1010.41
2018-06-04T10:23:42.811Z,1009.63
2018-06-04T10:24:42.735Z,1010.07
2018-06-04T10:25:43.689Z,1010.40
2018-06-04T10:26:42.607Z,1010.36
2018-06-04T10:27:42.595Z,1010.35
2018-06-04T10:28:42.477Z,1010.39
2018-06-04T10:29:42.496Z,1010.35
2018-06-04T10:30:42.395Z,1010.34
2018-06-04T10:31:42.411Z,1009.88
2018-06-04T10:32:42.224Z,1010.37
2018-06-04T10:33:42.229Z,1009.68
2018-06-04T10:34:42.187Z,1009.64
2018-06-04T10:35:42.068Z,1009.65
2018-06-04T10:36:41.969Z,1010.21
2018-06-04T10:37:42.030Z,1010.22
2018-06-04T10:38:41.963Z,1009.65
2018-06-04T10:39:41.822Z,1009.62
2018-06-04T10:40:41.766Z,1009.68
2018-06-04T10:43:23.630Z,1010.41
2018-06-04T10:46:05.667Z,1010.30
2018-06-04T10:47:05.670Z,1010.29
2018-06-04T10:48:05.516Z,1010.35
2018-06-04T10:49:05.458Z,1010.36
2018-06-04T10:50:05.378Z,1010.31
2018-06-04T10:51:05.418Z,1010.29
2018-06-04T10:52:05.247Z,1010.31
2018-06-04T10:53:05.218Z,1010.18
2018-06-04T10:54:05.117Z,1010.19
2018-06-04T10:55:05.099Z,1010.22
2018-06-04T10:56:05.011Z,1010.18
2018-06-04T10:57:05.985Z,1010.23
2018-06-04T10:58:04.875Z,1010.25
2018-06-04T10:59:04.912Z,1010.25
2018-06-04T11:00:04.752Z,1010.24
2018-06-04T11:01:04.737Z,1010.22
2018-06-04T11:02:04.692Z,1010.21
2018-06-04T11:03:04.633Z,1010.22
2018-06-04T11:04:04.557Z,1010.19
2018-06-04T11:05:04.545Z,1010.20
2018-06-04T11:06:04.385Z,1010.14
2018-06-04T11:07:04.384Z,1010.14
2018-06-04T11:08:04.246Z,1010.05
2018-06-04T11:09:04.265Z,1009.70
2018-06-04T11:10:04.118Z,1009.50
2018-06-04T11:11:04.167Z,1009.61
2018-06-04T11:12:04.017Z,1010.04
2018-06-04T11:14:46.181Z,1010.15
2018-06-04T11:15:46.171Z,1010.19
2018-06-04T11:16:46.055Z,1010.10
2018-06-04T11:17:46.004Z,1010.10
2018-06-04T11:18:45.930Z,1010.05
2018-06-04T11:19:45.891Z,1010.01
2018-06-04T11:20:45.765Z,1010.00
2018-06-04T11:21:45.709Z,1010.02
2018-06-04T11:22:45.671Z,1009.99
2018-06-04T11:23:45.639Z,1009.95
2018-06-04T11:24:45.515Z,1009.97
2018-06-04T11:27:27.688Z,1009.91
2018-06-04T11:28:27.609Z,1009.92
2018-06-04T11:29:27.513Z,1009.95
2018-06-04T11:30:27.554Z,1009.96
2018-06-04T11:31:27.409Z,1009.91
2018-06-04T11:32:27.530Z,1009.93
2018-06-04T11:33:27.293Z,1009.94
2018-06-04T11:34:27.264Z,1009.86
2018-06-04T11:35:27.143Z,1009.81
2018-06-04T11:36:27.170Z,1009.87
2018-06-04T11:37:27.042Z,1009.85
2018-06-04T11:38:27.162Z,1009.79
2018-06-04T11:39:26.902Z,1009.82
2018-06-04T11:40:26.897Z,1009.69
2018-06-04T11:41:26.783Z,1009.37
2018-06-04T11:42:26.798Z,1009.28
2018-06-04T11:43:26.685Z,1009.18
2018-06-04T11:44:26.743Z,1009.26
2018-06-04T11:45:26.548Z,1009.24
2018-06-04T11:46:26.535Z,1009.22
2018-06-04T11:47:26.409Z,1009.21
2018-06-04T11:48:26.473Z,1009.19
2018-06-04T11:49:26.298Z,1009.17
2018-06-04T11:50:26.345Z,1009.21
2018-06-04T11:51:26.188Z,1009.22
2018-06-04T11:52:26.140Z,1009.18
2018-06-04T11:53:26.085Z,1009.17
2018-06-04T11:54:26.071Z,1009.15
2018-06-04T11:55:25.916Z,1009.12
2018-06-04T11:56:25.992Z,1009.11
2018-06-04T11:57:25.786Z,1009.09
2018-06-04T11:58:25.920Z,1009.16
2018-06-04T11:59:25.658Z,1009.08
2018-06-04T12:00:25.616Z,1009.13
2018-06-04T12:01:25.540Z,1009.12
2018-06-04T12:02:25.521Z,1009.10
2018-06-04T12:03:25.400Z,1009.11
2018-06-04T12:04:26.470Z,1009.10
2018-06-04T12:05:25.295Z,1009.06
2018-06-04T12:08:07.153Z,1009.09
2018-06-04T12:09:07.125Z,1009.09
2018-06-04T12:10:07.019Z,1009.10
2018-06-04T12:11:07.029Z,1009.12
2018-06-04T12:12:06.935Z,1009.10
2018-06-04T12:14:49.199Z,1009.12
2018-06-04T12:15:49.144Z,1009.10
2018-06-04T12:16:49.092Z,1009.11
2018-06-04T12:17:48.973Z,1009.07
2018-06-04T12:18:48.883Z,1009.05
2018-06-04T12:19:48.896Z,1009.06
2018-06-04T12:20:48.741Z,1009.04
2018-06-04T12:23:30.711Z,1009.07
2018-06-04T12:24:30.741Z,1009.03
2018-06-04T12:25:30.594Z,1008.98
2018-06-04T12:26:30.568Z,1008.94
2018-06-04T12:27:30.428Z,1008.94
2018-06-04T12:28:30.339Z,1008.93
2018-06-04T12:29:30.379Z,1008.95
2018-06-04T12:30:30.190Z,1008.89
2018-06-04T12:31:30.121Z,1008.94
2018-06-04T12:34:12.171Z,1008.90
2018-06-04T12:35:12.372Z,1008.93
2018-06-04T12:36:12.029Z,1008.88
2018-06-04T12:37:12.023Z,1008.91
2018-06-04T12:38:11.980Z,1008.94
2018-06-04T12:40:54.218Z,1008.87
2018-06-04T12:41:54.303Z,1008.93
2018-06-04T12:42:54.029Z,1008.89
2018-06-04T12:43:54.037Z,1008.87
2018-06-04T12:44:53.944Z,1008.84
2018-06-04T12:45:53.892Z,1008.89
2018-06-04T12:46:53.805Z,1008.85
2018-06-04T12:49:35.753Z,1008.90
2018-06-04T12:50:35.792Z,1008.86
2018-06-04T12:51:35.627Z,1008.89
2018-06-04T12:52:35.581Z,1008.89
2018-06-04T12:53:35.394Z,1008.87
2018-06-04T12:54:35.367Z,1008.83
2018-06-04T12:55:35.285Z,1008.88
2018-06-04T12:56:35.335Z,1008.84
2018-06-04T12:57:35.102Z,1008.85
2018-06-04T13:00:17.213Z,1008.83
2018-06-04T13:01:18.265Z,1008.81
2018-06-04T13:02:17.044Z,1008.84
2018-06-04T13:04:59.303Z,1008.76
2018-06-04T13:07:41.225Z,1008.77
2018-06-04T13:10:23.270Z,1008.71
2018-06-04T13:11:23.279Z,1008.66
2018-06-04T13:12:23.047Z,1008.64
2018-06-04T13:13:23.003Z,1008.70
2018-06-04T13:14:22.908Z,1008.59
2018-06-04T13:15:22.933Z,1008.67
2018-06-04T13:16:22.798Z,1008.65
2018-06-04T13:17:22.735Z,1008.64
2018-06-04T13:18:22.615Z,1008.58
2018-06-04T13:21:04.790Z,1008.58
2018-06-04T13:22:04.763Z,1008.60
2018-06-04T13:23:04.561Z,1008.59
2018-06-04T13:24:04.554Z,1008.56
2018-06-04T13:25:04.400Z,1008.57
2018-06-04T13:26:04.392Z,1008.56
2018-06-04T13:27:04.307Z,1008.52
2018-06-04T13:28:04.259Z,1008.51
2018-06-04T13:29:04.194Z,1008.51
2018-06-04T13:30:05.231Z,1008.44
2018-06-04T13:31:03.971Z,1008.48
2018-06-04T13:32:04.016Z,1008.47
2018-06-04T13:33:03.831Z,1008.47
2018-06-04T13:34:03.893Z,1008.48
2018-06-04T13:35:03.715Z,1008.52
2018-06-04T13:37:45.714Z,1008.43
2018-06-04T13:38:45.710Z,1008.43
2018-06-04T13:39:45.545Z,1008.41
2018-06-04T13:40:45.605Z,1008.45
2018-06-04T13:41:45.512Z,1008.44
2018-06-04T13:42:45.482Z,1008.42
2018-06-04T13:43:45.316Z,1008.42
2018-06-04T13:44:45.227Z,1008.44
2018-06-04T13:45:45.121Z,1008.43
2018-06-04T13:46:45.186Z,1008.41
2018-06-04T13:47:45.034Z,1008.42
2018-06-04T13:48:44.955Z,1008.37
2018-06-04T13:49:44.830Z,1008.40
2018-06-04T13:50:44.796Z,1008.37
2018-06-04T13:51:44.701Z,1008.39
2018-06-04T13:52:44.689Z,1008.34
2018-06-04T13:53:44.566Z,1008.32
2018-06-04T13:56:26.702Z,1008.35
2018-06-04T13:57:26.672Z,1008.33
2018-06-04T13:58:26.578Z,1008.30
2018-06-04T14:01:08.692Z,1008.40
2018-06-04T14:03:50.749Z,1008.39
2018-06-04T14:06:32.708Z,1008.35
2018-06-04T14:07:32.653Z,1008.38
2018-06-04T14:08:32.616Z,1008.37
2018-06-04T14:09:32.590Z,1008.30
2018-06-04T14:10:32.418Z,1008.30
2018-06-04T14:11:32.406Z,1008.32
2018-06-04T14:12:32.268Z,1008.31
2018-06-04T14:13:33.298Z,1008.33
2018-06-04T14:14:32.132Z,1008.36
2018-06-04T14:17:14.223Z,1008.30
2018-06-04T14:18:14.265Z,1008.29
2018-06-04T14:19:14.085Z,1008.30
2018-06-04T14:20:14.063Z,1008.27
2018-06-04T14:21:13.951Z,1008.20
2018-06-04T14:22:13.980Z,1008.23
2018-06-04T14:23:13.785Z,1008.20
2018-06-04T14:24:13.755Z,1008.12
2018-06-04T14:25:13.648Z,1008.13
2018-06-04T14:26:13.690Z,1008.11
2018-06-04T14:27:13.502Z,1008.09
2018-06-04T14:29:55.743Z,1008.13
2018-06-04T14:30:55.702Z,1008.12
2018-06-04T14:31:55.569Z,1008.10
2018-06-04T14:32:55.599Z,1008.08
2018-06-04T14:33:55.444Z,1008.03
2018-06-04T14:34:55.413Z,1008.07
2018-06-04T14:35:55.287Z,1008.05
2018-06-04T14:36:55.305Z,1008.09
2018-06-04T14:37:55.153Z,1008.05
2018-06-04T14:38:55.103Z,1008.05
2018-06-04T14:39:55.014Z,1008.03
2018-06-04T14:40:55.056Z,1008.03
2018-06-04T14:41:54.872Z,1008.02
2018-06-04T14:42:54.841Z,1008.04
2018-06-04T14:43:54.724Z,1008.02
2018-06-04T14:44:54.730Z,1008.05
2018-06-04T14:45:54.594Z,1008.09
2018-06-04T14:46:54.546Z,1008.03
2018-06-04T14:47:54.446Z,1008.08
2018-06-04T14:48:54.444Z,1008.03
2018-06-04T14:49:54.271Z,1008.00
2018-06-04T14:50:54.295Z,1008.03
2018-06-04T14:51:54.133Z,1007.99
2018-06-04T14:54:36.227Z,1008.02
2018-06-04T14:55:37.228Z,1007.98
2018-06-04T14:56:36.107Z,1007.96
2018-06-04T14:57:36.094Z,1008.00
2018-06-04T14:58:35.963Z,1008.00
2018-06-04T15:01:18.275Z,1007.95
2018-06-04T15:02:18.188Z,1007.96
2018-06-04T15:03:18.090Z,1007.97
2018-06-04T15:04:18.146Z,1008.00
2018-06-04T15:05:17.953Z,1007.98
2018-06-04T15:06:18.999Z,1007.94
2018-06-04T15:07:17.779Z,1007.95
2018-06-04T15:08:17.837Z,1007.96
2018-06-04T15:09:17.635Z,1007.96
2018-06-04T15:11:59.766Z,1007.93
2018-06-04T15:14:41.722Z,1007.94
2018-06-04T15:15:41.729Z,1007.88
2018-06-04T15:16:41.627Z,1007.87
2018-06-04T15:17:41.541Z,1007.80
2018-06-04T15:18:41.437Z,1007.85
2018-06-04T15:19:41.458Z,1007.79
2018-06-04T15:20:41.294Z,1007.79
2018-06-04T15:21:41.292Z,1007.76
2018-06-04T15:22:41.164Z,1007.79
2018-06-04T15:23:41.202Z,1007.82
2018-06-04T15:24:40.990Z,1007.80
2018-06-04T15:27:23.257Z,1007.80
2018-06-04T15:28:23.283Z,1007.80
2018-06-04T15:29:23.081Z,1007.83
2018-06-04T15:30:23.093Z,1007.78
2018-06-04T15:31:22.935Z,1007.78
2018-06-04T15:32:22.964Z,1007.79
2018-06-04T15:33:22.802Z,1007.80
2018-06-04T15:34:22.782Z,1007.72
2018-06-04T15:35:22.661Z,1007.79
2018-06-04T15:36:22.729Z,1007.78
2018-06-04T15:37:22.527Z,1007.77
2018-06-04T15:38:22.464Z,1007.74
2018-06-04T15:39:22.369Z,1007.71
2018-06-04T15:40:22.344Z,1007.70
2018-06-04T15:41:22.223Z,1007.71
2018-06-04T15:44:04.277Z,1007.72
2018-06-04T15:45:04.212Z,1007.67
2018-06-04T15:46:04.125Z,1007.61
2018-06-04T15:47:04.064Z,1007.61
2018-06-04T15:48:04.004Z,1007.65
2018-06-04T15:49:03.959Z,1007.65
2018-06-04T15:50:03.845Z,1007.64
2018-06-04T15:51:03.871Z,1007.63
2018-06-04T15:52:03.656Z,1007.63
2018-06-04T15:53:03.655Z,1007.60